This is the latest recevied weather packets stored in our database for station/object W1HVD. If no packets are shown the sender has not sent any weather packets the latest 10 day(s).
| Time | Temp. | Humidity | Pressure | Rain* | Wind** | Luminosity | Snow |
|---|---|---|---|---|---|---|---|
| 1777648821 | 13.89° C | 49% | 1010.1 hPa | 0 mm | - | 394 W/m² | - |
| 1777648517 | 13.89° C | 50% | 1010.1 hPa | 0 mm | - | 466 W/m² | - |
| 1777648215 | 13.89° C | 49% | 1010 hPa | 0 mm | - | 292 W/m² | - |
| 1777647909 | 13.89° C | 48% | 1010.2 hPa | 0 mm | - | 338 W/m² | - |
| 1777647607 | 14.44° C | 45% | 1010 hPa | 0 mm | - | 832 W/m² | - |
| 1777647302 | 13.33° C | 53% | 1010 hPa | 0 mm | - | 664 W/m² | - |
| 1777647001 | 13.89° C | 48% | 1010.1 hPa | 0 mm | - | 282 W/m² | - |
| 1777646696 | 13.89° C | 51% | 1010.1 hPa | 0 mm | - | 817 W/m² | - |
| 1777646392 | 13.89° C | 49% | 1010.3 hPa | 0 mm | - | 699 W/m² | - |
| 1777646089 | 13.33° C | 53% | 1010.2 hPa | 0 mm | - | 701 W/m² | - |
| 1777645785 | 12.78° C | 52% | 1010.3 hPa | 0 mm | - | 416 W/m² | - |
| 1777645483 | 12.78° C | 53% | 1010.4 hPa | 0 mm | - | 337 W/m² | - |
| 1777645178 | 13.33° C | 53% | 1010.3 hPa | 0 mm | - | 440 W/m² | - |
| 1777644874 | 12.78° C | 56% | 1010.2 hPa | 0 mm | - | 557 W/m² | - |
| 1777644573 | 12.78° C | 56% | 1010.4 hPa | 0 mm | - | 696 W/m² | - |
| 1777644268 | 12.22° C | 56% | 1010.4 hPa | 0 mm | - | 476 W/m² | - |
| 1777643965 | 12.78° C | 53% | 1010.2 hPa | 0 mm | - | 383 W/m² | - |
| 1777643662 | 12.78° C | 53% | 1010.1 hPa | 0 mm | - | 465 W/m² | - |
| 1777643359 | 12.22° C | 52% | 1010 hPa | 0 mm | - | 366 W/m² | - |
| 1777643056 | 12.22° C | 59% | 1010.2 hPa | 0 mm | - | 367 W/m² | - |
| 1777642752 | 11.67° C | 57% | 1010 hPa | 0 mm | - | 336 W/m² | - |
| 1777642450 | 11.67° C | 57% | 1010.1 hPa | 0 mm | - | 336 W/m² | - |
| 1777642146 | 11.67° C | 60% | 1010 hPa | 0 mm | - | 322 W/m² | - |
| 1777641842 | 11.11° C | 62% | 1009.9 hPa | 0 mm | - | 289 W/m² | - |
| 1777641537 | 11.11° C | 62% | 1009.9 hPa | 0 mm | - | 288 W/m² | - |
* Rain latest hour (hover to see other rain measurements)
** Current wind speed in m/s (hover to see current wind gust speed)